Boynton Beach, FL (33435)

8:23 AM EDT on August 24, 2016 (GMT -0400)
Forest Park | | Change Station

Elev 15 ft 26.52 °N, 80.07 °W | Updated 2 seconds ago

Mostly Cloudy
Mostly Cloudy
83.8 °F
Feels Like 94 °F
N
0.0
Wind Variable Wind from SSE
Gusts 0.0 mph

Today
High -- | Low -- °F
--% Chance of Precip.
Yesterday
High -- | Low -- °F
Precip. -- in
Pressure 30.08 in
Visibility 10.0 miles
Clouds Scattered Clouds 2500 ft
Mostly Cloudy 6000 ft
Mostly Cloudy 25000 ft
Heat Index 94 °F
Dew Point 78 °F
Humidity 82%
Rainfall 0.00 in
Snow Depth Not available.
6:56 AM 7:47 PM
Waning Gibbous, 57% visible
SPECI KPBI 241212Z 03008KT 10SM SCT025CB BKN060 BKN250 29/24 A3008 RMK AO2 RAE04 TSE12 CB E-SE MOV SW CB DSNT E P0000 T02890239
Pressure 30.08 in
Visibility 10.0 miles
Clouds Scattered Clouds 2500 ft
Mostly Cloudy 6000 ft
Mostly Cloudy 25000 ft
Heat Index 94 °F
Dew Point 78 °F
Humidity 82%
Rainfall 0.00 in
Snow Depth Not available.
6:56 AM 7:47 PM
Waning Gibbous, 57% visible
SPECI KPBI 241212Z 03008KT 10SM SCT025CB BKN060 BKN250 29/24 A3008 RMK AO2 RAE04 TSE12 CB E-SE MOV SW CB DSNT E P0000 T02890239

10-Day Weather Forecast

Almanac

Astronomy

Aug. 24, 2016 Rise Set
Actual Time
Civil Twilight
Nautical Twilight
Astronomical Twilight
Moon
Length of Visible Light
Length of Day
Tomorrow will be .
, % of the Moon is Illuminated

Today's Extremes

State Highs State Lows

Community

WunderPhotos

Upload Photos

1,934,579 photos uploaded!

WunderBlog® & News

Nearby

Air Quality

  Air Quality AQ Index Pollutant
Not available.

Snow Depth

Station Depth Elevation

Earthquake Activity

City Distance Mag. Time & Date
Minimum magnitude displayed is 2.5.

Coastal Water Temperatures

Place Temperature

Stations

Nearby Weather Stations

Station Location Temp. Windchill Dew Point Humidity Wind Precip. Elev Updated Type
                   

Watches & Warnings

There are currently no watches in effect.